Time;durP1;ratioP1;P1;durP2;ratioP2;P2;SDS_P1;SDS_P2;PMS_P1;PMS_P2;Temp;Humidity;BMP_temperature;BMP_pressure;BME280_temperature;BME280_humidity;BME280_pressure;Samples;Min_cycle;Max_cycle;Signal;HPM_P1;HPM_P2
2023/06/14 00:01:24;;;;;;;9.65;6.25;;;18.10;99.90;;;;;;5038141;28;20029;-63
2023/06/14 00:03:49;;;;;;;13.05;6.18;;;17.80;99.90;;;;;;5038228;28;20166;-62
2023/06/14 00:06:15;;;;;;;13.35;6.28;;;17.70;99.90;;;;;;5037324;28;20029;-63
2023/06/14 00:08:41;;;;;;;11.65;6.82;;;17.70;99.90;;;;;;5036656;28;20033;-64
2023/06/14 00:11:07;;;;;;;8.63;5.32;;;17.60;99.90;;;;;;5040151;28;20438;-63
2023/06/14 00:13:33;;;;;;;12.98;5.78;;;17.60;99.90;;;;;;5034873;28;20025;-63
2023/06/14 00:15:58;;;;;;;11.90;5.63;;;17.50;99.90;;;;;;5035620;28;20120;-63
2023/06/14 00:18:24;;;;;;;9.10;6.22;;;17.40;99.90;;;;;;5040340;28;20025;-62
2023/06/14 00:20:51;;;;;;;10.32;6.63;;;17.40;99.90;;;;;;5036659;28;20040;-63
2023/06/14 00:23:17;;;;;;;13.55;6.68;;;17.30;99.90;;;;;;5036515;28;20029;-63
2023/06/14 00:25:43;;;;;;;8.70;6.65;;;17.30;99.90;;;;;;5037705;28;20078;-62
2023/06/14 00:28:08;;;;;;;16.60;6.80;;;17.30;99.90;;;;;;5033934;28;20469;-62
2023/06/14 00:30:34;;;;;;;12.05;6.63;;;17.30;99.90;;;;;;5034812;28;20021;-63
2023/06/14 00:33:00;;;;;;;12.73;6.35;;;17.10;99.90;;;;;;5036757;28;20059;-62
2023/06/14 00:35:25;;;;;;;11.52;6.40;;;17.00;99.90;;;;;;5037369;28;20029;-61
2023/06/14 00:37:51;;;;;;;10.35;5.90;;;17.10;99.90;;;;;;5036352;28;20029;-60
2023/06/14 00:40:16;;;;;;;9.70;5.72;;;16.90;99.90;;;;;;5034551;28;20487;-62
2023/06/14 00:42:42;;;;;;;9.75;6.88;;;16.90;99.90;;;;;;5037275;28;20091;-63
2023/06/14 00:45:08;;;;;;;9.65;6.50;;;16.90;99.90;;;;;;5035782;28;20044;-64
2023/06/14 00:47:37;;;;;;;10.00;6.57;;;16.90;99.90;;;;;;5035860;28;20025;-63
2023/06/14 00:50:03;;;;;;;11.13;7.18;;;16.80;99.90;;;;;;5037056;28;20095;-63
2023/06/14 00:52:29;;;;;;;12.45;6.35;;;16.70;99.90;;;;;;5036270;28;20025;-63
2023/06/14 00:54:55;;;;;;;14.57;6.50;;;16.80;99.90;;;;;;5038053;28;20032;-63
2023/06/14 00:57:21;;;;;;;11.25;7.38;;;16.70;99.90;;;;;;5039602;28;20025;-64
2023/06/14 00:59:49;;;;;;;12.13;6.70;;;16.60;99.90;;;;;;5037442;28;20031;-63
2023/06/14 01:02:15;;;;;;;8.13;5.97;;;16.50;99.90;;;;;;5030192;28;20071;-63
2023/06/14 01:04:45;;;;;;;11.73;6.43;;;16.50;99.90;;;;;;5041330;28;20029;-64
2023/06/14 01:07:29;;;;;;;10.05;6.93;;;16.50;99.90;;;;;;5041793;28;20086;-63
2023/06/14 01:10:23;;;;;;;11.60;6.70;;;16.30;99.90;;;;;;5038656;28;20060;-62
2023/06/14 01:13:15;;;;;;;12.02;7.60;;;16.20;99.90;;;;;;5034568;28;20108;-64
2023/06/14 01:15:42;;;;;;;12.60;7.30;;;16.10;99.90;;;;;;5034481;28;20033;-63
2023/06/14 01:18:16;;;;;;;8.85;6.57;;;16.00;99.90;;;;;;5038866;28;20033;-62
2023/06/14 01:20:44;;;;;;;13.60;6.82;;;16.00;99.90;;;;;;5038613;28;20032;-61
2023/06/14 01:23:12;;;;;;;12.43;6.85;;;16.00;99.90;;;;;;5046185;28;20060;-61
2023/06/14 01:25:38;;;;;;;16.00;6.65;;;16.00;99.90;;;;;;5047275;28;20035;-64
2023/06/14 01:28:10;;;;;;;9.25;6.38;;;15.90;99.90;;;;;;5040463;28;20399;-63
2023/06/14 01:30:37;;;;;;;10.02;6.57;;;15.90;99.90;;;;;;5040318;28;20487;-64
2023/06/14 01:33:04;;;;;;;8.90;6.55;;;15.80;99.90;;;;;;5038624;28;20132;-63
2023/06/14 01:35:30;;;;;;;10.88;7.05;;;15.80;99.90;;;;;;5043681;28;20540;-64
2023/06/14 01:37:57;;;;;;;8.90;6.57;;;15.80;99.90;;;;;;5038112;28;20041;-62
2023/06/14 01:40:23;;;;;;;23.65;7.72;;;15.70;99.90;;;;;;5043705;28;20028;-65
2023/06/14 01:42:50;;;;;;;13.45;7.20;;;15.70;99.90;;;;;;5037590;28;20476;-63
2023/06/14 01:45:18;;;;;;;11.18;6.57;;;15.70;99.90;;;;;;5038322;28;20026;-64
2023/06/14 01:47:45;;;;;;;11.50;6.18;;;15.60;99.90;;;;;;5044188;28;20029;-62
2023/06/14 01:50:10;;;;;;;10.70;7.20;;;15.60;99.90;;;;;;5040932;28;20495;-63
2023/06/14 01:52:37;;;;;;;16.30;7.88;;;15.50;99.90;;;;;;5045940;28;20027;-62
2023/06/14 01:55:04;;;;;;;11.15;7.32;;;15.40;99.90;;;;;;5046343;28;20104;-64
2023/06/14 01:57:30;;;;;;;13.90;6.85;;;15.40;99.90;;;;;;5036476;28;20076;-63
2023/06/14 01:59:56;;;;;;;11.70;7.07;;;15.40;99.90;;;;;;5039639;28;20037;-63
2023/06/14 02:02:21;;;;;;;11.38;6.90;;;15.40;99.90;;;;;;5038357;28;20513;-63
2023/06/14 02:04:47;;;;;;;17.65;7.50;;;15.40;99.90;;;;;;5039921;28;20025;-62
2023/06/14 02:07:13;;;;;;;12.45;7.43;;;15.30;99.90;;;;;;5042450;28;20044;-63
2023/06/14 02:09:40;;;;;;;9.45;6.32;;;15.30;99.90;;;;;;5037559;28;20483;-62
2023/06/14 02:12:06;;;;;;;11.93;7.15;;;15.30;99.90;;;;;;5045467;28;20029;-61
2023/06/14 02:14:31;;;;;;;10.10;6.55;;;15.30;99.90;;;;;;5043915;28;20098;-62
2023/06/14 02:16:57;;;;;;;15.88;6.75;;;15.30;99.90;;;;;;5043837;28;20475;-59
2023/06/14 02:19:22;;;;;;;12.80;6.65;;;15.10;99.90;;;;;;5039716;28;20030;-63
2023/06/14 02:21:48;;;;;;;13.23;7.60;;;15.00;99.90;;;;;;5044939;28;20060;-64
2023/06/14 02:24:13;;;;;;;10.82;6.72;;;15.00;99.90;;;;;;5039486;28;20048;-61
2023/06/14 02:26:41;;;;;;;12.35;7.32;;;15.00;99.90;;;;;;5044832;28;20055;-62
2023/06/14 02:29:08;;;;;;;11.50;7.32;;;14.90;99.90;;;;;;5037865;28;20021;-62
2023/06/14 02:31:35;;;;;;;10.88;7.50;;;14.90;99.90;;;;;;5040636;28;20029;-62
2023/06/14 02:34:00;;;;;;;11.68;7.43;;;14.80;99.90;;;;;;5039365;28;20033;-62
2023/06/14 02:36:26;;;;;;;12.18;7.22;;;14.80;99.90;;;;;;5040006;28;20029;-63
2023/06/14 02:38:54;;;;;;;14.18;6.70;;;14.70;99.90;;;;;;5039972;28;20032;-63
2023/06/14 02:41:19;;;;;;;13.55;7.68;;;14.70;99.90;;;;;;5038109;28;20029;-65
2023/06/14 02:43:45;;;;;;;8.52;6.30;;;14.70;99.90;;;;;;5038720;28;20056;-63
2023/06/14 02:46:11;;;;;;;9.95;6.85;;;14.70;99.90;;;;;;5041958;28;20033;-64
2023/06/14 02:48:36;;;;;;;13.38;7.00;;;14.70;99.90;;;;;;5042179;28;20044;-62
2023/06/14 02:51:02;;;;;;;10.45;6.80;;;14.70;99.90;;;;;;5044721;28;20108;-64
2023/06/14 02:53:27;;;;;;;12.38;7.03;;;14.70;99.90;;;;;;5046958;28;20113;-62
2023/06/14 02:55:55;;;;;;;11.57;7.53;;;14.70;99.90;;;;;;5041862;28;20032;-63
2023/06/14 02:58:21;;;;;;;13.20;7.53;;;14.70;99.90;;;;;;5037938;28;20479;-63
2023/06/14 03:00:46;;;;;;;13.32;7.32;;;14.70;99.90;;;;;;5040241;28;20044;-62
2023/06/14 03:03:16;;;;;;;13.88;8.05;;;14.60;99.90;;;;;;5038488;28;20022;-62
2023/06/14 03:05:49;;;;;;;13.77;7.40;;;14.60;99.90;;;;;;5037727;28;20043;-63
2023/06/14 03:08:19;;;;;;;12.32;7.13;;;14.60;99.90;;;;;;5044537;28;20509;-63
2023/06/14 03:10:46;;;;;;;15.70;8.40;;;14.50;99.90;;;;;;5045445;28;20111;-63
2023/06/14 03:13:12;;;;;;;9.82;7.10;;;14.40;99.90;;;;;;5042131;28;20047;-64
2023/06/14 03:15:38;;;;;;;14.68;7.68;;;14.40;99.90;;;;;;5038224;28;20033;-63
2023/06/14 03:18:04;;;;;;;14.77;7.70;;;14.30;99.90;;;;;;5043862;28;20041;-62
2023/06/14 03:20:32;;;;;;;9.80;7.25;;;14.30;99.90;;;;;;5035852;28;20565;-63
2023/06/14 03:23:03;;;;;;;12.27;7.60;;;14.30;99.90;;;;;;5041263;28;20025;-61
2023/06/14 03:25:35;;;;;;;15.45;8.18;;;14.30;99.90;;;;;;5038534;28;20026;-64
2023/06/14 03:28:01;;;;;;;10.98;7.05;;;14.20;99.90;;;;;;5038390;28;20030;-61
2023/06/14 03:30:26;;;;;;;13.65;7.93;;;14.20;99.90;;;;;;5038610;28;20164;-63
2023/06/14 03:32:52;;;;;;;11.60;7.75;;;14.20;99.90;;;;;;5034913;28;20100;-63
2023/06/14 03:35:18;;;;;;;12.00;7.35;;;14.20;99.90;;;;;;5038170;28;20387;-63
2023/06/14 03:37:45;;;;;;;12.70;6.82;;;14.20;99.90;;;;;;5033886;28;20025;-64
2023/06/14 03:40:13;;;;;;;11.02;7.55;;;14.20;99.90;;;;;;5041442;28;20032;-63
2023/06/14 03:42:38;;;;;;;10.25;6.45;;;14.20;99.90;;;;;;5042704;28;20028;-64
2023/06/14 03:45:05;;;;;;;15.63;7.22;;;14.20;99.90;;;;;;5039090;28;20037;-59
2023/06/14 03:47:30;;;;;;;11.00;6.93;;;14.20;99.90;;;;;;5039969;28;20108;-63
2023/06/14 03:49:56;;;;;;;9.48;6.97;;;14.20;99.90;;;;;;5041215;28;20436;-62
2023/06/14 03:52:23;;;;;;;14.70;7.38;;;14.20;99.90;;;;;;5042033;28;20039;-64
2023/06/14 03:54:49;;;;;;;13.45;7.22;;;14.30;99.90;;;;;;5042140;28;20052;-64
2023/06/14 03:57:15;;;;;;;13.68;7.13;;;14.30;99.90;;;;;;5041561;28;20063;-61
2023/06/14 03:59:41;;;;;;;15.77;7.55;;;14.30;99.90;;;;;;5039708;28;20039;-64
2023/06/14 04:02:07;;;;;;;14.88;7.80;;;14.30;99.90;;;;;;5042268;28;20033;-63
2023/06/14 04:04:32;;;;;;;11.30;6.32;;;14.30;99.90;;;;;;5038050;28;20066;-64
2023/06/14 04:07:00;;;;;;;11.43;7.95;;;14.30;99.90;;;;;;5039223;28;20111;-61
2023/06/14 04:09:26;;;;;;;13.68;6.88;;;14.30;99.90;;;;;;5039992;28;20035;-63
2023/06/14 04:11:52;;;;;;;12.50;6.70;;;14.30;99.90;;;;;;5036769;28;20028;-63
2023/06/14 04:14:19;;;;;;;19.17;8.20;;;14.30;99.90;;;;;;5040451;28;20036;-63
2023/06/14 04:16:49;;;;;;;9.85;7.25;;;14.30;99.90;;;;;;5043039;28;20119;-63
2023/06/14 04:19:15;;;;;;;15.90;8.55;;;14.40;99.90;;;;;;5038448;28;20384;-62
2023/06/14 04:21:42;;;;;;;11.80;7.95;;;14.40;99.90;;;;;;5038213;28;20320;-61
2023/06/14 04:24:12;;;;;;;11.93;7.63;;;14.40;99.90;;;;;;5043117;28;20035;-63
2023/06/14 04:26:39;;;;;;;13.50;7.78;;;14.50;99.90;;;;;;5042175;28;20025;-63
2023/06/14 04:29:05;;;;;;;19.00;8.40;;;14.50;99.90;;;;;;5044160;28;20493;-63
2023/06/14 04:31:33;;;;;;;13.55;7.70;;;14.60;99.90;;;;;;5036133;28;20025;-64
2023/06/14 04:33:59;;;;;;;16.80;9.20;;;14.60;99.90;;;;;;5039959;28;20021;-64
2023/06/14 04:36:26;;;;;;;15.40;7.57;;;14.60;99.90;;;;;;5040401;28;20087;-63
2023/06/14 04:38:54;;;;;;;17.38;7.45;;;14.70;99.90;;;;;;5040936;28;20037;-63
2023/06/14 04:41:22;;;;;;;19.13;7.90;;;14.70;99.90;;;;;;5036266;28;20106;-64
2023/06/14 04:43:49;;;;;;;14.85;7.97;;;14.70;99.90;;;;;;5047254;28;20029;-64
2023/06/14 04:46:15;;;;;;;15.48;7.40;;;14.80;99.90;;;;;;5036654;28;20391;-64
2023/06/14 04:48:42;;;;;;;14.23;8.02;;;14.80;99.90;;;;;;5039756;28;20025;-63
2023/06/14 04:51:08;;;;;;;15.50;8.32;;;14.90;99.90;;;;;;5034478;28;20025;-61
2023/06/14 04:53:34;;;;;;;13.38;7.53;;;15.00;99.90;;;;;;5039423;28;20013;-64
2023/06/14 04:56:00;;;;;;;13.52;7.70;;;15.00;99.90;;;;;;5045473;28;20060;-65
2023/06/14 04:58:29;;;;;;;16.63;8.25;;;15.10;99.90;;;;;;5036172;28;20404;-65
2023/06/14 05:00:56;;;;;;;12.95;7.18;;;15.20;99.90;;;;;;5043065;28;20404;-63
2023/06/14 05:03:23;;;;;;;11.02;8.18;;;15.20;99.90;;;;;;5041989;28;20028;-63
2023/06/14 05:05:50;;;;;;;11.38;7.70;;;15.30;99.90;;;;;;5039844;28;20029;-63
2023/06/14 05:08:16;;;;;;;11.40;7.97;;;15.40;99.90;;;;;;5041422;28;20030;-64
2023/06/14 05:10:41;;;;;;;12.00;6.65;;;15.50;99.90;;;;;;5046573;28;20127;-64
2023/06/14 05:13:07;;;;;;;19.52;7.95;;;15.60;99.90;;;;;;5045308;28;20095;-62
2023/06/14 05:15:33;;;;;;;13.18;7.78;;;15.60;99.90;;;;;;5040346;28;20025;-64
2023/06/14 05:17:59;;;;;;;16.88;7.40;;;15.70;99.90;;;;;;5039528;28;20127;-62
2023/06/14 05:20:26;;;;;;;11.85;7.05;;;15.80;99.90;;;;;;5042596;28;20063;-62
2023/06/14 05:22:53;;;;;;;14.23;6.40;;;15.90;99.90;;;;;;5036163;28;20041;-64
2023/06/14 05:25:20;;;;;;;14.20;7.07;;;16.00;99.90;;;;;;5044590;28;20025;-62
2023/06/14 05:27:46;;;;;;;9.30;5.88;;;16.10;99.90;;;;;;5049416;28;20163;-65
2023/06/14 05:30:13;;;;;;;13.60;6.05;;;16.10;99.90;;;;;;5043508;28;20056;-63
2023/06/14 05:32:38;;;;;;;8.48;5.90;;;16.20;99.90;;;;;;5043023;28;20029;-64
2023/06/14 05:35:05;;;;;;;10.32;5.03;;;16.30;99.90;;;;;;5044326;28;20028;-62
2023/06/14 05:37:31;;;;;;;10.32;5.07;;;16.50;99.90;;;;;;5047525;28;20431;-63
2023/06/14 05:39:56;;;;;;;8.15;5.13;;;16.70;99.90;;;;;;5043871;28;20028;-63
2023/06/14 05:42:22;;;;;;;8.30;4.95;;;16.80;99.90;;;;;;5037286;28;20021;-64
2023/06/14 05:44:47;;;;;;;15.35;4.97;;;16.90;99.90;;;;;;5041986;28;20376;-64
2023/06/14 05:47:13;;;;;;;15.38;4.03;;;17.00;99.90;;;;;;5041499;28;20033;-64
2023/06/14 05:49:38;;;;;;;9.25;5.47;;;17.10;99.90;;;;;;5042656;28;20029;-63
2023/06/14 05:52:04;;;;;;;10.02;5.07;;;17.20;99.90;;;;;;5041045;28;20064;-64
2023/06/14 05:54:30;;;;;;;10.13;5.13;;;17.30;99.90;;;;;;5041137;28;20048;-63
2023/06/14 05:57:01;;;;;;;10.10;4.80;;;17.30;99.90;;;;;;5038792;28;20087;-64
2023/06/14 05:59:26;;;;;;;13.68;4.40;;;17.40;99.90;;;;;;5038793;28;20531;-65
2023/06/14 06:01:52;;;;;;;11.48;5.20;;;17.50;99.90;;;;;;5037493;28;20033;-64
2023/06/14 06:04:17;;;;;;;8.43;4.43;;;17.60;99.90;;;;;;5042015;28;20033;-64
2023/06/14 06:06:43;;;;;;;8.15;4.30;;;17.60;99.90;;;;;;5039358;28;20024;-64
2023/06/14 06:09:08;;;;;;;7.63;4.43;;;17.70;99.90;;;;;;5043313;28;20438;-63
2023/06/14 06:11:34;;;;;;;8.38;4.38;;;17.90;99.90;;;;;;5037349;28;20022;-64
2023/06/14 06:14:00;;;;;;;7.53;4.25;;;17.90;99.90;;;;;;5037835;28;20037;-65
2023/06/14 06:16:26;;;;;;;6.82;4.10;;;18.00;99.90;;;;;;5045924;28;20075;-64
2023/06/14 06:18:52;;;;;;;5.38;3.80;;;18.00;99.90;;;;;;5040400;28;20038;-62
2023/06/14 06:21:17;;;;;;;9.20;4.05;;;18.10;99.90;;;;;;5043531;28;20398;-63
2023/06/14 06:23:43;;;;;;;5.03;3.40;;;18.20;99.90;;;;;;5041315;28;20029;-64
2023/06/14 06:26:08;;;;;;;10.95;3.60;;;18.20;99.90;;;;;;5035698;28;20029;-64
2023/06/14 06:28:34;;;;;;;5.75;4.13;;;18.20;99.90;;;;;;5040191;28;20097;-63
2023/06/14 06:31:00;;;;;;;8.10;3.78;;;18.30;99.90;;;;;;5047980;28;20033;-63
2023/06/14 06:33:25;;;;;;;5.63;3.38;;;18.40;99.90;;;;;;5036851;28;20491;-64
2023/06/14 06:35:51;;;;;;;5.57;3.58;;;18.40;99.90;;;;;;5040963;28;20065;-64
2023/06/14 06:38:18;;;;;;;6.63;3.85;;;18.40;99.90;;;;;;5042115;28;20532;-64
2023/06/14 06:40:44;;;;;;;8.38;3.55;;;18.50;99.90;;;;;;5042709;28;20413;-64
2023/06/14 06:43:13;;;;;;;5.55;3.28;;;18.60;99.90;;;;;;5042039;28;20144;-63
2023/06/14 06:45:41;;;;;;;4.40;3.45;;;18.60;99.90;;;;;;5041414;28;20021;-64
2023/06/14 06:48:07;;;;;;;7.75;3.80;;;18.70;99.90;;;;;;5040878;28;20017;-61
2023/06/14 06:50:32;;;;;;;5.28;3.58;;;18.70;99.90;;;;;;5042018;28;20025;-63
2023/06/14 06:52:58;;;;;;;7.90;3.60;;;18.90;99.90;;;;;;5045337;28;20013;-64
2023/06/14 06:55:24;;;;;;;7.18;3.45;;;18.90;99.90;;;;;;5038810;28;20064;-64
2023/06/14 06:57:53;;;;;;;11.52;3.35;;;19.00;99.90;;;;;;5038324;28;20099;-64
2023/06/14 07:00:19;;;;;;;7.40;3.00;;;19.00;99.90;;;;;;5044084;28;20040;-63
2023/06/14 07:02:45;;;;;;;8.43;3.13;;;19.10;99.90;;;;;;5038945;28;20025;-64
2023/06/14 07:05:11;;;;;;;4.85;3.42;;;19.10;99.90;;;;;;5041975;28;20033;-65
2023/06/14 07:07:36;;;;;;;11.40;3.50;;;19.20;99.90;;;;;;5038146;28;20029;-65
2023/06/14 07:10:04;;;;;;;9.10;3.55;;;19.20;99.90;;;;;;5044290;28;20033;-66
2023/06/14 07:12:33;;;;;;;7.20;2.88;;;19.30;99.90;;;;;;5048573;28;21027;-64
2023/06/14 07:14:59;;;;;;;8.63;3.38;;;19.50;99.90;;;;;;5042489;28;20391;-65
2023/06/14 07:17:25;;;;;;;5.18;2.85;;;19.60;99.90;;;;;;5040730;28;20033;-66
2023/06/14 07:19:51;;;;;;;7.18;3.45;;;19.60;99.90;;;;;;5038916;28;20029;-65
2023/06/14 07:22:17;;;;;;;6.13;3.10;;;19.70;99.90;;;;;;5037857;28;20031;-64
2023/06/14 07:24:43;;;;;;;5.93;3.15;;;19.70;99.90;;;;;;5042115;28;20108;-64
2023/06/14 07:27:09;;;;;;;4.97;3.25;;;19.80;99.90;;;;;;5045940;28;20112;-65
2023/06/14 07:29:34;;;;;;;7.18;3.40;;;19.80;99.90;;;;;;5040942;28;20021;-65
2023/06/14 07:32:00;;;;;;;7.47;3.53;;;19.90;99.90;;;;;;5041478;28;20086;-66
2023/06/14 07:34:26;;;;;;;7.40;3.38;;;19.90;99.90;;;;;;5040930;28;20029;-66
2023/06/14 07:36:51;;;;;;;11.98;3.40;;;20.00;99.90;;;;;;5036266;28;20029;-66
2023/06/14 07:39:17;;;;;;;7.88;3.58;;;20.00;99.90;;;;;;5037835;28;20041;-66
2023/06/14 07:41:43;;;;;;;11.05;3.08;;;20.00;99.90;;;;;;5040718;28;20375;-65
2023/06/14 07:44:08;;;;;;;7.03;2.80;;;20.10;99.90;;;;;;5036371;28;20064;-66
2023/06/14 07:46:34;;;;;;;12.48;3.45;;;20.30;99.90;;;;;;5035908;28;20060;-66
2023/06/14 07:49:00;;;;;;;6.55;3.25;;;20.40;99.90;;;;;;5038059;28;20032;-66
2023/06/14 07:51:26;;;;;;;4.55;2.83;;;20.50;99.90;;;;;;5038181;28;20358;-66
2023/06/14 07:53:51;;;;;;;6.78;2.83;;;20.60;99.90;;;;;;5042379;28;20036;-66
2023/06/14 07:56:17;;;;;;;6.10;2.58;;;20.60;99.90;;;;;;5044122;28;20069;-65
2023/06/14 07:58:42;;;;;;;6.18;2.30;;;20.60;99.90;;;;;;5046235;28;20053;-67
2023/06/14 08:01:09;;;;;;;9.52;2.97;;;20.70;99.90;;;;;;5038018;28;20532;-66
2023/06/14 08:03:34;;;;;;;5.75;2.22;;;20.80;99.90;;;;;;5033304;28;20087;-66
2023/06/14 08:06:00;;;;;;;4.13;2.17;;;20.80;96.80;;;;;;5040328;28;20026;-66
2023/06/14 08:08:26;;;;;;;6.35;2.00;;;21.00;94.90;;;;;;5042853;28;20036;-65
2023/06/14 08:10:52;;;;;;;3.30;1.67;;;21.00;94.70;;;;;;5042065;28;20029;-66
2023/06/14 08:13:17;;;;;;;2.97;1.85;;;21.10;92.20;;;;;;5033107;28;20396;-67
2023/06/14 08:15:43;;;;;;;5.70;1.52;;;21.30;92.40;;;;;;5041581;28;20033;-66
2023/06/14 08:18:09;;;;;;;5.35;1.83;;;21.30;92.40;;;;;;5037516;28;20083;-66
2023/06/14 08:20:35;;;;;;;5.35;2.20;;;21.40;91.70;;;;;;5037065;28;20048;-66
2023/06/14 08:23:02;;;;;;;4.22;1.83;;;21.50;94.70;;;;;;5034022;28;20045;-65
2023/06/14 08:25:27;;;;;;;5.63;1.75;;;21.60;92.90;;;;;;5040263;28;20033;-65
2023/06/14 08:27:53;;;;;;;19.42;5.18;;;21.60;91.70;;;;;;5041482;28;20108;-66
2023/06/14 08:30:19;;;;;;;12.48;2.88;;;21.70;92.70;;;;;;5043969;28;20013;-65
2023/06/14 08:32:44;;;;;;;1.98;1.38;;;21.70;91.70;;;;;;5035623;28;20021;-65
2023/06/14 08:35:10;;;;;;;2.42;1.50;;;21.70;86.60;;;;;;5038352;28;20029;-66
2023/06/14 08:37:42;;;;;;;9.77;3.05;;;21.80;88.60;;;;;;5041904;28;20025;-66
2023/06/14 08:40:23;;;;;;;3.33;1.38;;;21.90;86.00;;;;;;5039040;28;20444;-66
2023/06/14 08:42:53;;;;;;;3.50;1.63;;;22.00;81.20;;;;;;5037685;28;20113;-66
2023/06/14 08:45:21;;;;;;;8.63;2.75;;;22.10;83.00;;;;;;5038140;28;20082;-65
2023/06/14 08:47:51;;;;;;;4.68;2.25;;;22.20;86.70;;;;;;5033439;28;20026;-66
2023/06/14 08:50:20;;;;;;;9.02;2.65;;;22.20;85.60;;;;;;5040065;28;20120;-66
2023/06/14 08:52:49;;;;;;;4.00;1.40;;;22.30;86.10;;;;;;5041767;28;20021;-66
2023/06/14 08:55:17;;;;;;;6.15;1.90;;;22.30;79.50;;;;;;5038838;28;20033;-66
2023/06/14 08:57:44;;;;;;;6.20;2.42;;;22.30;80.60;;;;;;5037111;28;20083;-65
2023/06/14 09:00:13;;;;;;;2.83;1.83;;;22.50;82.80;;;;;;5041111;28;20428;-66
2023/06/14 09:02:43;;;;;;;10.50;2.50;;;22.60;78.50;;;;;;5039416;28;20503;-65
2023/06/14 09:05:17;;;;;;;3.53;1.48;;;22.60;76.30;;;;;;5040266;28;20040;-65
2023/06/14 09:07:44;;;;;;;7.15;2.50;;;22.80;73.40;;;;;;5037936;28;20140;-65
2023/06/14 09:10:11;;;;;;;2.42;1.45;;;22.80;82.20;;;;;;5044381;28;20024;-65
2023/06/14 09:12:37;;;;;;;4.57;2.10;;;23.00;77.80;;;;;;5044512;28;20541;-66
2023/06/14 09:15:08;;;;;;;4.80;2.00;;;23.00;82.50;;;;;;5043896;28;20081;-66
2023/06/14 09:17:35;;;;;;;13.57;1.95;;;23.10;72.40;;;;;;5040598;28;20021;-65
2023/06/14 09:20:13;;;;;;;6.78;2.35;;;23.00;77.70;;;;;;5038639;28;20503;-65
2023/06/14 09:22:39;;;;;;;5.20;1.65;;;23.00;80.70;;;;;;5042154;28;20044;-66
2023/06/14 09:25:06;;;;;;;2.75;2.30;;;23.10;80.20;;;;;;5041244;28;20021;-65
2023/06/14 09:27:32;;;;;;;6.53;1.75;;;23.20;76.40;;;;;;5042562;28;20037;-66
2023/06/14 09:29:57;;;;;;;7.18;2.67;;;23.40;75.40;;;;;;5035122;28;20116;-64
2023/06/14 09:32:23;;;;;;;6.15;1.40;;;23.50;76.30;;;;;;5040006;28;20100;-64
2023/06/14 09:34:49;;;;;;;5.82;1.63;;;23.50;71.20;;;;;;5036426;28;20033;-65
2023/06/14 09:37:30;;;;;;;15.73;1.90;;;23.50;71.00;;;;;;5041296;28;20060;-66
2023/06/14 09:39:57;;;;;;;3.20;1.50;;;23.60;72.50;;;;;;5040754;28;20038;-65
2023/06/14 09:42:25;;;;;;;5.60;2.50;;;23.70;69.80;;;;;;5047240;28;20487;-65
2023/06/14 09:44:52;;;;;;;4.32;1.52;;;23.80;74.00;;;;;;5043078;28;20033;-64
2023/06/14 09:47:18;;;;;;;3.03;1.48;;;24.00;72.70;;;;;;5041728;28;20028;-67
2023/06/14 09:49:44;;;;;;;6.32;1.58;;;24.20;67.90;;;;;;5052439;28;20033;-65
2023/06/14 09:52:20;;;;;;;2.78;1.95;;;24.20;67.60;;;;;;5046052;28;20105;-64
2023/06/14 09:54:47;;;;;;;5.63;2.33;;;24.10;66.60;;;;;;5047869;28;20013;-65
2023/06/14 09:57:15;;;;;;;2.13;1.50;;;24.00;72.20;;;;;;5042211;28;20029;-66
2023/06/14 09:59:46;;;;;;;3.97;1.83;;;24.20;67.40;;;;;;5048323;28;20024;-64
2023/06/14 10:02:37;;;;;;;2.63;1.60;;;24.30;66.90;;;;;;5046579;28;20029;-66
2023/06/14 10:05:12;;;;;;;5.93;1.77;;;24.50;67.50;;;;;;5048266;28;20033;-65
2023/06/14 10:07:44;;;;;;;5.07;1.77;;;24.60;67.00;;;;;;5056112;28;20054;-67
2023/06/14 10:10:10;;;;;;;2.38;1.88;;;24.80;65.10;;;;;;5045121;28;20045;-66
2023/06/14 10:12:36;;;;;;;3.20;1.98;;;24.80;67.60;;;;;;5040400;28;20059;-67
2023/06/14 10:15:02;;;;;;;3.67;2.08;;;25.10;64.30;;;;;;5047360;28;20030;-71
2023/06/14 10:17:35;;;;;;;5.43;1.77;;;25.20;65.90;;;;;;5038623;28;20078;-66
2023/06/14 10:20:37;;;;;;;3.75;1.65;;;25.20;63.70;;;;;;5045602;28;20027;-66
2023/06/14 10:23:18;;;;;;;3.88;1.60;;;25.10;62.90;;;;;;5041209;28;20049;-66
2023/06/14 10:25:44;;;;;;;3.97;1.70;;;25.00;62.30;;;;;;5051234;28;20036;-66
2023/06/14 10:28:18;;;;;;;3.08;1.40;;;25.20;63.70;;;;;;5048338;28;20442;-67
2023/06/14 10:31:02;;;;;;;;;;;25.50;64.30;;;;;;5041798;28;20076;-66
2023/06/14 10:33:27;;;;;;;2.83;1.40;;;25.50;61.30;;;;;;5042154;28;19932;-66
2023/06/14 10:36:07;;;;;;;3.85;2.00;;;25.30;59.80;;;;;;5047194;28;20499;-66
2023/06/14 10:38:35;;;;;;;3.58;1.45;;;25.20;60.30;;;;;;5047645;28;20017;-67
2023/06/14 10:41:01;;;;;;;5.22;1.50;;;25.20;61.70;;;;;;5047831;28;20395;-66
2023/06/14 10:43:26;;;;;;;3.72;1.60;;;25.30;61.00;;;;;;5047204;28;20115;-66
2023/06/14 10:46:17;;;;;;;1.75;1.40;;;25.60;60.70;;;;;;5048034;28;20100;-66
2023/06/14 10:48:44;;;;;;;2.53;1.35;;;25.60;60.70;;;;;;5037657;28;20017;-66
2023/06/14 10:51:20;;;;;;;1.60;1.20;;;25.80;60.00;;;;;;5046566;28;20044;-66
2023/06/14 10:53:51;;;;;;;3.30;1.63;;;25.80;59.50;;;;;;5046191;28;20021;-67
2023/06/14 10:56:32;;;;;;;2.78;1.30;;;25.90;59.30;;;;;;5051088;28;20024;-66
2023/06/14 10:58:58;;;;;;;2.33;1.75;;;26.20;59.60;;;;;;5041439;28;20655;-66
2023/06/14 11:01:39;;;;;;;7.70;2.10;;;26.30;60.20;;;;;;5048175;28;20095;-65
2023/06/14 11:04:12;;;;;;;2.30;1.40;;;26.80;62.20;;;;;;5040902;28;20095;-66
2023/06/14 11:06:53;;;;;;;3.13;1.80;;;27.20;63.40;;;;;;5039350;28;20419;-66
2023/06/14 11:09:57;;;;;;;2.70;1.60;;;27.60;61.10;;;;;;5041375;28;20017;-65
2023/06/14 11:12:24;;;;;;;2.45;1.67;;;27.60;58.50;;;;;;5040680;28;20460;-66
2023/06/14 11:14:50;;;;;;;2.72;1.85;;;27.40;62.80;;;;;;5040571;28;20427;-66
2023/06/14 11:17:16;;;;;;;2.22;1.65;;;27.60;64.60;;;;;;5042000;28;20021;-66
2023/06/14 11:19:41;;;;;;;3.08;1.67;;;27.50;58.50;;;;;;5045529;28;20025;-66
2023/06/14 11:22:07;;;;;;;9.50;2.00;;;27.60;61.40;;;;;;5038837;28;20021;-66
2023/06/14 11:24:33;;;;;;;5.68;1.83;;;27.80;57.60;;;;;;5038483;28;20029;-66
2023/06/14 11:26:58;;;;;;;2.13;1.10;;;27.00;62.30;;;;;;5043620;28;20016;-66
2023/06/14 11:29:24;;;;;;;6.72;1.80;;;27.00;63.00;;;;;;5046920;28;20071;-66
2023/06/14 11:31:51;;;;;;;2.38;1.63;;;27.30;64.00;;;;;;5045859;28;20021;-66
2023/06/14 11:34:17;;;;;;;2.30;1.70;;;27.50;65.20;;;;;;5044674;28;20043;-63
2023/06/14 11:36:43;;;;;;;2.58;1.90;;;27.20;62.20;;;;;;5044079;28;20217;-66
2023/06/14 11:39:09;;;;;;;4.45;2.03;;;26.50;69.70;;;;;;5047688;28;20422;-65
2023/06/14 11:41:52;;;;;;;2.15;1.80;;;26.80;70.70;;;;;;5048188;28;20033;-65
2023/06/14 11:44:18;;;;;;;3.28;1.40;;;27.10;67.20;;;;;;5047968;28;20025;-66
2023/06/14 11:46:44;;;;;;;3.78;1.70;;;27.30;65.30;;;;;;5042975;28;21076;-65
2023/06/14 11:49:10;;;;;;;5.38;2.03;;;27.90;69.00;;;;;;5044607;28;20453;-66
2023/06/14 11:51:37;;;;;;;3.80;1.80;;;28.20;64.20;;;;;;5040888;28;20059;-66
2023/06/14 11:54:04;;;;;;;3.35;1.52;;;27.90;65.50;;;;;;5040759;28;20467;-66
2023/06/14 11:56:31;;;;;;;2.80;1.83;;;28.40;64.30;;;;;;5035873;28;20097;-66
2023/06/14 11:58:57;;;;;;;3.08;1.90;;;28.30;61.10;;;;;;5043493;28;20036;-66
2023/06/14 12:01:23;;;;;;;2.72;2.10;;;27.60;62.20;;;;;;5035610;28;20029;-63
2023/06/14 12:03:50;;;;;;;12.93;1.90;;;27.50;63.30;;;;;;5046843;28;20075;-65
2023/06/14 12:06:17;;;;;;;8.77;2.13;;;27.60;62.40;;;;;;5038820;28;20033;-65
2023/06/14 12:08:45;;;;;;;2.75;1.63;;;27.70;65.70;;;;;;5040231;28;20109;-65
2023/06/14 12:11:13;;;;;;;12.90;2.13;;;28.30;62.10;;;;;;5040075;28;20431;-65
2023/06/14 12:13:43;;;;;;;5.35;1.73;;;28.50;66.60;;;;;;5043216;28;20029;-63
2023/06/14 12:16:10;;;;;;;3.70;1.35;;;27.80;63.40;;;;;;5037524;28;20033;-64
2023/06/14 12:18:36;;;;;;;5.00;1.50;;;27.70;65.20;;;;;;5036797;28;20109;-63
2023/06/14 12:21:10;;;;;;;2.50;1.45;;;27.90;65.70;;;;;;5035830;28;20477;-64
2023/06/14 12:23:42;;;;;;;2.42;1.60;;;27.90;63.90;;;;;;5037542;28;20104;-63
2023/06/14 12:26:08;;;;;;;9.60;1.63;;;27.40;64.30;;;;;;5044711;28;20048;-65
2023/06/14 12:28:33;;;;;;;5.30;1.60;;;27.10;65.50;;;;;;5038738;28;20037;-66
2023/06/14 12:30:59;;;;;;;4.35;1.42;;;27.10;62.30;;;;;;5045731;28;20032;-63
2023/06/14 12:33:25;;;;;;;9.73;1.73;;;27.20;65.40;;;;;;5037971;28;20056;-64
2023/06/14 12:35:54;;;;;;;2.53;1.45;;;27.20;68.90;;;;;;5038869;28;20336;-63
2023/06/14 12:38:21;;;;;;;2.55;1.55;;;26.90;68.00;;;;;;5040533;28;20450;-64
2023/06/14 12:40:46;;;;;;;4.75;1.80;;;27.00;72.70;;;;;;5040560;28;20452;-66
2023/06/14 12:43:12;;;;;;;3.35;1.30;;;27.30;68.80;;;;;;5047035;28;20029;-65
2023/06/14 12:45:37;;;;;;;3.53;1.42;;;27.70;65.90;;;;;;5041263;28;20028;-65